sensor_id;sensor_type;location;lat;lon;timestamp;P1;durP1;ratioP1;P2;durP2;ratioP2
57573;SDS011;68988;49.000;21.242;2024-02-14T00:00:20;2.17;;;1.60;;
57573;SDS011;68988;49.000;21.242;2024-02-14T00:02:46;1.50;;;1.40;;
57573;SDS011;68988;49.000;21.242;2024-02-14T00:05:14;1.60;;;1.50;;
57573;SDS011;68988;49.000;21.242;2024-02-14T00:07:40;1.50;;;1.40;;
57573;SDS011;68988;49.000;21.242;2024-02-14T00:10:06;1.60;;;1.45;;
57573;SDS011;68988;49.000;21.242;2024-02-14T00:12:32;1.60;;;1.50;;
57573;SDS011;68988;49.000;21.242;2024-02-14T00:14:58;1.38;;;1.27;;
57573;SDS011;68988;49.000;21.242;2024-02-14T00:17:23;1.60;;;1.50;;
57573;SDS011;68988;49.000;21.242;2024-02-14T00:19:50;1.38;;;1.27;;
57573;SDS011;68988;49.000;21.242;2024-02-14T00:22:15;2.35;;;1.40;;
57573;SDS011;68988;49.000;21.242;2024-02-14T00:24:41;3.75;;;1.50;;
57573;SDS011;68988;49.000;21.242;2024-02-14T00:27:06;1.70;;;1.23;;
57573;SDS011;68988;49.000;21.242;2024-02-14T00:29:32;1.50;;;1.40;;
57573;SDS011;68988;49.000;21.242;2024-02-14T00:31:59;1.42;;;1.33;;
57573;SDS011;68988;49.000;21.242;2024-02-14T00:34:25;1.50;;;1.40;;
57573;SDS011;68988;49.000;21.242;2024-02-14T00:36:50;1.92;;;1.40;;
57573;SDS011;68988;49.000;21.242;2024-02-14T00:39:16;1.52;;;1.42;;
57573;SDS011;68988;49.000;21.242;2024-02-14T00:41:41;2.50;;;1.65;;
57573;SDS011;68988;49.000;21.242;2024-02-14T00:44:07;1.35;;;1.25;;
57573;SDS011;68988;49.000;21.242;2024-02-14T00:46:32;1.67;;;1.55;;
57573;SDS011;68988;49.000;21.242;2024-02-14T00:48:57;1.30;;;1.20;;
57573;SDS011;68988;49.000;21.242;2024-02-14T00:51:23;1.38;;;1.27;;
57573;SDS011;68988;49.000;21.242;2024-02-14T00:53:48;1.30;;;1.20;;
57573;SDS011;68988;49.000;21.242;2024-02-14T00:56:14;1.83;;;1.50;;
57573;SDS011;68988;49.000;21.242;2024-02-14T00:58:39;1.60;;;1.50;;
57573;SDS011;68988;49.000;21.242;2024-02-14T01:01:04;1.40;;;1.30;;
57573;SDS011;68988;49.000;21.242;2024-02-14T01:03:30;1.77;;;1.45;;
57573;SDS011;68988;49.000;21.242;2024-02-14T01:05:56;1.67;;;1.55;;
57573;SDS011;68988;49.000;21.242;2024-02-14T01:08:21;2.45;;;1.15;;
57573;SDS011;68988;49.000;21.242;2024-02-14T01:10:47;1.48;;;1.38;;
57573;SDS011;68988;49.000;21.242;2024-02-14T01:13:14;1.65;;;1.52;;
57573;SDS011;68988;49.000;21.242;2024-02-14T01:15:40;2.70;;;1.48;;
57573;SDS011;68988;49.000;21.242;2024-02-14T01:18:06;1.30;;;1.20;;
57573;SDS011;68988;49.000;21.242;2024-02-14T01:20:32;1.33;;;1.23;;
57573;SDS011;68988;49.000;21.242;2024-02-14T01:22:57;1.48;;;1.38;;
57573;SDS011;68988;49.000;21.242;2024-02-14T01:25:22;1.60;;;1.50;;
57573;SDS011;68988;49.000;21.242;2024-02-14T01:27:48;1.17;;;1.15;;
57573;SDS011;68988;49.000;21.242;2024-02-14T01:30:14;1.13;;;1.02;;
57573;SDS011;68988;49.000;21.242;2024-02-14T01:32:39;1.27;;;1.20;;
57573;SDS011;68988;49.000;21.242;2024-02-14T01:35:05;1.05;;;1.00;;
57573;SDS011;68988;49.000;21.242;2024-02-14T01:37:31;1.30;;;1.20;;
57573;SDS011;68988;49.000;21.242;2024-02-14T01:39:56;1.23;;;1.10;;
57573;SDS011;68988;49.000;21.242;2024-02-14T01:42:22;1.05;;;1.05;;
57573;SDS011;68988;49.000;21.242;2024-02-14T01:44:47;1.25;;;1.15;;
57573;SDS011;68988;49.000;21.242;2024-02-14T01:47:13;1.30;;;1.20;;
57573;SDS011;68988;49.000;21.242;2024-02-14T01:49:39;1.30;;;1.20;;
57573;SDS011;68988;49.000;21.242;2024-02-14T01:52:05;1.23;;;1.17;;
57573;SDS011;68988;49.000;21.242;2024-02-14T01:54:31;1.55;;;1.30;;
57573;SDS011;68988;49.000;21.242;2024-02-14T01:56:56;1.30;;;1.20;;
57573;SDS011;68988;49.000;21.242;2024-02-14T01:59:23;1.55;;;1.45;;
57573;SDS011;68988;49.000;21.242;2024-02-14T02:01:49;1.17;;;1.08;;
57573;SDS011;68988;49.000;21.242;2024-02-14T02:04:16;1.25;;;1.15;;
57573;SDS011;68988;49.000;21.242;2024-02-14T02:06:43;1.17;;;1.17;;
57573;SDS011;68988;49.000;21.242;2024-02-14T02:09:08;1.77;;;1.17;;
57573;SDS011;68988;49.000;21.242;2024-02-14T02:11:46;1.27;;;1.17;;
57573;SDS011;68988;49.000;21.242;2024-02-14T02:14:13;1.40;;;1.30;;
57573;SDS011;68988;49.000;21.242;2024-02-14T02:16:39;1.48;;;1.20;;
57573;SDS011;68988;49.000;21.242;2024-02-14T02:19:04;1.25;;;1.23;;
57573;SDS011;68988;49.000;21.242;2024-02-14T02:21:33;1.48;;;1.17;;
57573;SDS011;68988;49.000;21.242;2024-02-14T02:23:59;1.13;;;1.08;;
57573;SDS011;68988;49.000;21.242;2024-02-14T02:26:25;1.40;;;1.30;;
57573;SDS011;68988;49.000;21.242;2024-02-14T02:28:51;3.17;;;1.25;;
57573;SDS011;68988;49.000;21.242;2024-02-14T02:31:16;1.58;;;1.17;;
57573;SDS011;68988;49.000;21.242;2024-02-14T02:33:41;1.00;;;1.00;;
57573;SDS011;68988;49.000;21.242;2024-02-14T02:36:08;2.25;;;1.30;;
57573;SDS011;68988;49.000;21.242;2024-02-14T02:38:34;1.00;;;1.00;;
57573;SDS011;68988;49.000;21.242;2024-02-14T02:41:01;1.08;;;1.08;;
57573;SDS011;68988;49.000;21.242;2024-02-14T02:43:28;1.48;;;1.38;;
57573;SDS011;68988;49.000;21.242;2024-02-14T02:45:53;1.40;;;1.30;;
57573;SDS011;68988;49.000;21.242;2024-02-14T02:48:19;1.20;;;1.10;;
57573;SDS011;68988;49.000;21.242;2024-02-14T02:50:48;1.38;;;1.27;;
57573;SDS011;68988;49.000;21.242;2024-02-14T02:53:14;1.27;;;1.15;;
57573;SDS011;68988;49.000;21.242;2024-02-14T02:55:40;1.35;;;1.20;;
57573;SDS011;68988;49.000;21.242;2024-02-14T02:58:06;1.27;;;1.17;;
57573;SDS011;68988;49.000;21.242;2024-02-14T03:00:31;1.30;;;1.20;;
57573;SDS011;68988;49.000;21.242;2024-02-14T03:02:57;1.30;;;1.25;;
57573;SDS011;68988;49.000;21.242;2024-02-14T03:05:23;1.10;;;1.00;;
57573;SDS011;68988;49.000;21.242;2024-02-14T03:07:48;1.02;;;1.00;;
57573;SDS011;68988;49.000;21.242;2024-02-14T03:10:16;1.13;;;1.13;;
57573;SDS011;68988;49.000;21.242;2024-02-14T03:12:44;1.15;;;1.13;;
57573;SDS011;68988;49.000;21.242;2024-02-14T03:15:13;1.00;;;1.00;;
57573;SDS011;68988;49.000;21.242;2024-02-14T03:17:39;1.17;;;1.08;;
57573;SDS011;68988;49.000;21.242;2024-02-14T03:20:04;1.10;;;1.10;;
57573;SDS011;68988;49.000;21.242;2024-02-14T03:22:39;1.33;;;1.23;;
57573;SDS011;68988;49.000;21.242;2024-02-14T03:25:11;1.40;;;1.30;;
57573;SDS011;68988;49.000;21.242;2024-02-14T03:27:37;1.08;;;1.00;;
57573;SDS011;68988;49.000;21.242;2024-02-14T03:30:03;0.90;;;0.90;;
57573;SDS011;68988;49.000;21.242;2024-02-14T03:32:29;1.05;;;1.05;;
57573;SDS011;68988;49.000;21.242;2024-02-14T03:34:55;1.15;;;1.10;;
57573;SDS011;68988;49.000;21.242;2024-02-14T03:37:20;0.73;;;0.73;;
57573;SDS011;68988;49.000;21.242;2024-02-14T03:39:47;1.23;;;1.13;;
57573;SDS011;68988;49.000;21.242;2024-02-14T03:42:12;1.25;;;1.15;;
57573;SDS011;68988;49.000;21.242;2024-02-14T03:44:38;1.02;;;0.95;;
57573;SDS011;68988;49.000;21.242;2024-02-14T03:47:05;1.35;;;1.25;;
57573;SDS011;68988;49.000;21.242;2024-02-14T03:49:31;1.25;;;1.08;;
57573;SDS011;68988;49.000;21.242;2024-02-14T03:51:56;1.08;;;1.00;;
57573;SDS011;68988;49.000;21.242;2024-02-14T03:54:22;1.10;;;1.10;;
57573;SDS011;68988;49.000;21.242;2024-02-14T03:56:48;1.30;;;1.00;;
57573;SDS011;68988;49.000;21.242;2024-02-14T03:59:14;0.90;;;0.90;;
57573;SDS011;68988;49.000;21.242;2024-02-14T04:01:43;0.93;;;0.90;;
57573;SDS011;68988;49.000;21.242;2024-02-14T04:04:10;1.27;;;1.17;;
57573;SDS011;68988;49.000;21.242;2024-02-14T04:06:35;1.10;;;1.10;;
57573;SDS011;68988;49.000;21.242;2024-02-14T04:09:01;1.20;;;1.10;;
57573;SDS011;68988;49.000;21.242;2024-02-14T04:11:26;1.20;;;1.10;;
57573;SDS011;68988;49.000;21.242;2024-02-14T04:13:51;1.00;;;1.00;;
57573;SDS011;68988;49.000;21.242;2024-02-14T04:16:20;1.20;;;1.10;;
57573;SDS011;68988;49.000;21.242;2024-02-14T04:18:46;1.23;;;1.20;;
57573;SDS011;68988;49.000;21.242;2024-02-14T04:21:12;0.85;;;0.85;;
57573;SDS011;68988;49.000;21.242;2024-02-14T04:23:37;0.82;;;0.82;;
57573;SDS011;68988;49.000;21.242;2024-02-14T04:26:02;1.00;;;0.98;;
57573;SDS011;68988;49.000;21.242;2024-02-14T04:28:28;1.30;;;1.20;;
57573;SDS011;68988;49.000;21.242;2024-02-14T04:30:53;0.88;;;0.88;;
57573;SDS011;68988;49.000;21.242;2024-02-14T04:33:20;1.00;;;0.90;;
57573;SDS011;68988;49.000;21.242;2024-02-14T04:35:46;1.20;;;1.10;;
57573;SDS011;68988;49.000;21.242;2024-02-14T04:38:12;0.98;;;0.90;;
57573;SDS011;68988;49.000;21.242;2024-02-14T04:40:37;1.02;;;1.00;;
57573;SDS011;68988;49.000;21.242;2024-02-14T04:43:03;0.98;;;0.77;;
57573;SDS011;68988;49.000;21.242;2024-02-14T04:45:29;1.05;;;1.05;;
57573;SDS011;68988;49.000;21.242;2024-02-14T04:47:55;1.10;;;1.00;;
57573;SDS011;68988;49.000;21.242;2024-02-14T04:50:20;0.88;;;0.88;;
57573;SDS011;68988;49.000;21.242;2024-02-14T04:52:45;0.90;;;0.90;;
57573;SDS011;68988;49.000;21.242;2024-02-14T04:55:11;0.98;;;0.98;;
57573;SDS011;68988;49.000;21.242;2024-02-14T04:57:36;0.85;;;0.85;;
57573;SDS011;68988;49.000;21.242;2024-02-14T05:00:02;0.98;;;0.98;;
57573;SDS011;68988;49.000;21.242;2024-02-14T05:02:29;1.05;;;1.05;;
57573;SDS011;68988;49.000;21.242;2024-02-14T05:04:55;1.02;;;1.02;;
57573;SDS011;68988;49.000;21.242;2024-02-14T05:07:20;0.90;;;0.90;;
57573;SDS011;68988;49.000;21.242;2024-02-14T05:09:45;1.15;;;1.10;;
57573;SDS011;68988;49.000;21.242;2024-02-14T05:12:13;1.08;;;0.98;;
57573;SDS011;68988;49.000;21.242;2024-02-14T05:14:38;0.80;;;0.80;;
57573;SDS011;68988;49.000;21.242;2024-02-14T05:17:05;0.77;;;0.77;;
57573;SDS011;68988;49.000;21.242;2024-02-14T05:19:31;1.23;;;1.13;;
57573;SDS011;68988;49.000;21.242;2024-02-14T05:21:57;0.75;;;0.75;;
57573;SDS011;68988;49.000;21.242;2024-02-14T05:24:23;1.05;;;1.00;;
57573;SDS011;68988;49.000;21.242;2024-02-14T05:26:52;1.33;;;1.00;;
57573;SDS011;68988;49.000;21.242;2024-02-14T05:29:17;0.90;;;0.90;;
57573;SDS011;68988;49.000;21.242;2024-02-14T05:31:46;1.25;;;1.10;;
57573;SDS011;68988;49.000;21.242;2024-02-14T05:34:13;3.13;;;1.23;;
57573;SDS011;68988;49.000;21.242;2024-02-14T05:36:39;2.70;;;1.52;;
57573;SDS011;68988;49.000;21.242;2024-02-14T05:39:04;5.50;;;1.45;;
57573;SDS011;68988;49.000;21.242;2024-02-14T05:41:31;1.30;;;1.20;;
57573;SDS011;68988;49.000;21.242;2024-02-14T05:43:57;3.90;;;1.30;;
57573;SDS011;68988;49.000;21.242;2024-02-14T05:46:23;3.90;;;1.10;;
57573;SDS011;68988;49.000;21.242;2024-02-14T05:48:49;1.02;;;0.93;;
57573;SDS011;68988;49.000;21.242;2024-02-14T05:51:14;1.27;;;1.17;;
57573;SDS011;68988;49.000;21.242;2024-02-14T05:53:40;1.30;;;1.20;;
57573;SDS011;68988;49.000;21.242;2024-02-14T05:56:05;4.50;;;1.20;;
57573;SDS011;68988;49.000;21.242;2024-02-14T05:58:31;1.60;;;1.20;;
57573;SDS011;68988;49.000;21.242;2024-02-14T06:00:57;1.30;;;1.10;;
57573;SDS011;68988;49.000;21.242;2024-02-14T06:03:22;0.82;;;0.82;;
57573;SDS011;68988;49.000;21.242;2024-02-14T06:05:47;2.08;;;1.15;;
57573;SDS011;68988;49.000;21.242;2024-02-14T06:08:13;1.60;;;1.15;;
57573;SDS011;68988;49.000;21.242;2024-02-14T06:10:38;1.70;;;1.10;;
57573;SDS011;68988;49.000;21.242;2024-02-14T06:13:04;2.13;;;1.10;;
57573;SDS011;68988;49.000;21.242;2024-02-14T06:15:30;1.20;;;1.10;;
57573;SDS011;68988;49.000;21.242;2024-02-14T06:17:55;3.05;;;1.00;;
57573;SDS011;68988;49.000;21.242;2024-02-14T06:20:21;1.83;;;1.10;;
57573;SDS011;68988;49.000;21.242;2024-02-14T06:22:46;1.00;;;1.00;;
57573;SDS011;68988;49.000;21.242;2024-02-14T06:25:11;2.33;;;1.00;;
57573;SDS011;68988;49.000;21.242;2024-02-14T06:27:37;1.23;;;0.80;;
57573;SDS011;68988;49.000;21.242;2024-02-14T06:30:03;1.70;;;1.10;;
57573;SDS011;68988;49.000;21.242;2024-02-14T06:32:29;1.33;;;1.02;;
57573;SDS011;68988;49.000;21.242;2024-02-14T06:34:54;2.92;;;1.05;;
57573;SDS011;68988;49.000;21.242;2024-02-14T06:37:20;3.05;;;0.80;;
57573;SDS011;68988;49.000;21.242;2024-02-14T06:39:45;1.10;;;1.10;;
57573;SDS011;68988;49.000;21.242;2024-02-14T06:42:10;4.05;;;1.00;;
57573;SDS011;68988;49.000;21.242;2024-02-14T06:44:36;6.13;;;1.08;;
57573;SDS011;68988;49.000;21.242;2024-02-14T06:47:01;1.40;;;1.10;;
57573;SDS011;68988;49.000;21.242;2024-02-14T06:49:26;5.00;;;1.20;;
57573;SDS011;68988;49.000;21.242;2024-02-14T06:51:52;1.02;;;0.93;;
57573;SDS011;68988;49.000;21.242;2024-02-14T06:54:17;0.85;;;0.70;;
57573;SDS011;68988;49.000;21.242;2024-02-14T06:56:44;1.92;;;0.90;;
57573;SDS011;68988;49.000;21.242;2024-02-14T06:59:10;1.10;;;1.00;;
57573;SDS011;68988;49.000;21.242;2024-02-14T07:01:35;1.02;;;0.90;;
57573;SDS011;68988;49.000;21.242;2024-02-14T07:04:01;1.15;;;1.05;;
57573;SDS011;68988;49.000;21.242;2024-02-14T07:06:26;2.53;;;0.95;;
57573;SDS011;68988;49.000;21.242;2024-02-14T07:08:52;1.52;;;1.10;;
57573;SDS011;68988;49.000;21.242;2024-02-14T07:11:18;0.73;;;0.73;;
57573;SDS011;68988;49.000;21.242;2024-02-14T07:13:43;1.00;;;0.90;;
57573;SDS011;68988;49.000;21.242;2024-02-14T07:16:09;3.30;;;0.95;;
57573;SDS011;68988;49.000;21.242;2024-02-14T07:18:34;3.50;;;1.05;;
57573;SDS011;68988;49.000;21.242;2024-02-14T07:21:00;1.45;;;1.08;;
57573;SDS011;68988;49.000;21.242;2024-02-14T07:23:26;0.80;;;0.80;;
57573;SDS011;68988;49.000;21.242;2024-02-14T07:25:52;0.82;;;0.82;;
57573;SDS011;68988;49.000;21.242;2024-02-14T07:28:17;5.65;;;1.13;;
57573;SDS011;68988;49.000;21.242;2024-02-14T07:30:43;1.25;;;1.08;;
57573;SDS011;68988;49.000;21.242;2024-02-14T07:33:09;1.70;;;1.00;;
57573;SDS011;68988;49.000;21.242;2024-02-14T07:35:34;0.90;;;0.73;;
57573;SDS011;68988;49.000;21.242;2024-02-14T07:38:01;5.38;;;1.13;;
57573;SDS011;68988;49.000;21.242;2024-02-14T07:40:27;0.85;;;0.85;;
57573;SDS011;68988;49.000;21.242;2024-02-14T07:42:55;1.80;;;1.05;;
57573;SDS011;68988;49.000;21.242;2024-02-14T07:45:21;2.17;;;1.58;;
57573;SDS011;68988;49.000;21.242;2024-02-14T07:47:46;2.90;;;1.60;;
57573;SDS011;68988;49.000;21.242;2024-02-14T07:50:14;2.03;;;1.50;;
57573;SDS011;68988;49.000;21.242;2024-02-14T07:52:43;4.18;;;1.83;;
57573;SDS011;68988;49.000;21.242;2024-02-14T07:55:09;3.20;;;2.10;;
57573;SDS011;68988;49.000;21.242;2024-02-14T07:57:37;2.08;;;1.58;;
57573;SDS011;68988;49.000;21.242;2024-02-14T08:00:03;2.50;;;1.65;;
57573;SDS011;68988;49.000;21.242;2024-02-14T08:02:30;2.92;;;1.75;;
57573;SDS011;68988;49.000;21.242;2024-02-14T08:04:55;2.53;;;2.10;;
57573;SDS011;68988;49.000;21.242;2024-02-14T08:07:21;5.20;;;1.95;;
57573;SDS011;68988;49.000;21.242;2024-02-14T08:09:46;1.77;;;1.30;;
57573;SDS011;68988;49.000;21.242;2024-02-14T08:12:11;3.20;;;1.67;;
57573;SDS011;68988;49.000;21.242;2024-02-14T08:14:37;3.92;;;1.67;;
57573;SDS011;68988;49.000;21.242;2024-02-14T08:17:03;3.10;;;1.70;;
57573;SDS011;68988;49.000;21.242;2024-02-14T08:19:29;2.60;;;1.80;;
57573;SDS011;68988;49.000;21.242;2024-02-14T08:21:54;5.38;;;1.70;;
57573;SDS011;68988;49.000;21.242;2024-02-14T08:24:24;2.65;;;2.20;;
57573;SDS011;68988;49.000;21.242;2024-02-14T08:26:50;6.75;;;1.90;;
57573;SDS011;68988;49.000;21.242;2024-02-14T08:29:15;3.90;;;1.70;;
57573;SDS011;68988;49.000;21.242;2024-02-14T08:31:41;2.75;;;1.60;;
57573;SDS011;68988;49.000;21.242;2024-02-14T08:34:06;1.55;;;1.45;;
57573;SDS011;68988;49.000;21.242;2024-02-14T08:36:31;2.88;;;1.65;;
57573;SDS011;68988;49.000;21.242;2024-02-14T08:38:58;1.92;;;1.58;;
57573;SDS011;68988;49.000;21.242;2024-02-14T08:41:23;2.75;;;1.52;;
57573;SDS011;68988;49.000;21.242;2024-02-14T08:43:48;2.45;;;1.83;;
57573;SDS011;68988;49.000;21.242;2024-02-14T08:46:14;7.88;;;1.40;;
57573;SDS011;68988;49.000;21.242;2024-02-14T08:48:42;1.80;;;1.70;;
57573;SDS011;68988;49.000;21.242;2024-02-14T08:51:11;3.50;;;1.75;;
57573;SDS011;68988;49.000;21.242;2024-02-14T08:53:38;5.20;;;1.42;;
57573;SDS011;68988;49.000;21.242;2024-02-14T08:56:03;4.20;;;1.85;;
57573;SDS011;68988;49.000;21.242;2024-02-14T08:58:29;1.80;;;1.60;;
57573;SDS011;68988;49.000;21.242;2024-02-14T09:00:54;3.40;;;1.90;;
57573;SDS011;68988;49.000;21.242;2024-02-14T09:03:19;5.20;;;2.00;;
57573;SDS011;68988;49.000;21.242;2024-02-14T09:05:45;8.00;;;1.92;;
57573;SDS011;68988;49.000;21.242;2024-02-14T09:08:11;7.50;;;1.70;;
57573;SDS011;68988;49.000;21.242;2024-02-14T09:10:37;3.15;;;1.48;;
57573;SDS011;68988;49.000;21.242;2024-02-14T09:13:03;15.25;;;1.77;;
57573;SDS011;68988;49.000;21.242;2024-02-14T09:15:29;13.68;;;1.83;;
57573;SDS011;68988;49.000;21.242;2024-02-14T09:17:56;3.58;;;1.73;;
57573;SDS011;68988;49.000;21.242;2024-02-14T09:20:22;6.53;;;1.90;;
57573;SDS011;68988;49.000;21.242;2024-02-14T09:22:47;4.45;;;1.50;;
57573;SDS011;68988;49.000;21.242;2024-02-14T09:25:13;7.13;;;1.70;;
57573;SDS011;68988;49.000;21.242;2024-02-14T09:27:39;9.45;;;1.45;;
57573;SDS011;68988;49.000;21.242;2024-02-14T09:30:06;23.67;;;1.67;;
57573;SDS011;68988;49.000;21.242;2024-02-14T09:32:32;3.15;;;1.38;;
57573;SDS011;68988;49.000;21.242;2024-02-14T09:34:58;6.10;;;1.60;;
57573;SDS011;68988;49.000;21.242;2024-02-14T09:37:24;2.05;;;1.85;;
57573;SDS011;68988;49.000;21.242;2024-02-14T09:39:50;4.38;;;1.55;;
57573;SDS011;68988;49.000;21.242;2024-02-14T09:42:16;6.85;;;1.27;;
57573;SDS011;68988;49.000;21.242;2024-02-14T09:44:48;5.05;;;1.77;;
57573;SDS011;68988;49.000;21.242;2024-02-14T09:47:17;4.88;;;1.77;;
57573;SDS011;68988;49.000;21.242;2024-02-14T09:49:44;1.80;;;1.30;;
57573;SDS011;68988;49.000;21.242;2024-02-14T09:52:10;2.33;;;1.23;;
57573;SDS011;68988;49.000;21.242;2024-02-14T09:54:37;2.30;;;1.48;;
57573;SDS011;68988;49.000;21.242;2024-02-14T09:57:04;3.70;;;1.63;;
57573;SDS011;68988;49.000;21.242;2024-02-14T09:59:30;4.22;;;1.50;;
57573;SDS011;68988;49.000;21.242;2024-02-14T10:01:57;1.40;;;1.30;;
57573;SDS011;68988;49.000;21.242;2024-02-14T10:04:22;3.67;;;1.40;;
57573;SDS011;68988;49.000;21.242;2024-02-14T10:06:49;6.35;;;1.58;;
57573;SDS011;68988;49.000;21.242;2024-02-14T10:09:21;4.10;;;1.40;;
57573;SDS011;68988;49.000;21.242;2024-02-14T10:11:47;2.45;;;1.73;;
57573;SDS011;68988;49.000;21.242;2024-02-14T10:14:13;2.50;;;1.25;;
57573;SDS011;68988;49.000;21.242;2024-02-14T10:16:39;12.07;;;1.50;;
57573;SDS011;68988;49.000;21.242;2024-02-14T10:19:04;1.52;;;1.00;;
57573;SDS011;68988;49.000;21.242;2024-02-14T10:21:32;1.20;;;1.10;;
57573;SDS011;68988;49.000;21.242;2024-02-14T10:24:01;5.70;;;1.45;;
57573;SDS011;68988;49.000;21.242;2024-02-14T10:26:30;3.95;;;1.42;;
57573;SDS011;68988;49.000;21.242;2024-02-14T10:28:56;1.50;;;1.40;;
57573;SDS011;68988;49.000;21.242;2024-02-14T10:31:25;2.13;;;1.40;;
57573;SDS011;68988;49.000;21.242;2024-02-14T10:33:51;1.50;;;1.20;;
57573;SDS011;68988;49.000;21.242;2024-02-14T10:36:19;1.95;;;1.50;;
57573;SDS011;68988;49.000;21.242;2024-02-14T10:38:47;4.75;;;1.33;;
57573;SDS011;68988;49.000;21.242;2024-02-14T10:41:15;3.60;;;1.40;;
57573;SDS011;68988;49.000;21.242;2024-02-14T10:43:41;1.73;;;1.40;;
57573;SDS011;68988;49.000;21.242;2024-02-14T10:46:12;7.28;;;1.58;;
57573;SDS011;68988;49.000;21.242;2024-02-14T10:48:42;2.13;;;1.30;;
57573;SDS011;68988;49.000;21.242;2024-02-14T10:51:08;2.28;;;1.27;;
57573;SDS011;68988;49.000;21.242;2024-02-14T10:53:37;5.97;;;1.50;;
57573;SDS011;68988;49.000;21.242;2024-02-14T10:56:07;2.03;;;1.35;;
57573;SDS011;68988;49.000;21.242;2024-02-14T10:58:33;9.20;;;1.58;;
57573;SDS011;68988;49.000;21.242;2024-02-14T11:01:00;7.35;;;1.23;;
57573;SDS011;68988;49.000;21.242;2024-02-14T11:03:25;4.90;;;1.60;;
57573;SDS011;68988;49.000;21.242;2024-02-14T11:05:53;9.20;;;1.80;;
57573;SDS011;68988;49.000;21.242;2024-02-14T11:08:25;9.07;;;1.60;;
57573;SDS011;68988;49.000;21.242;2024-02-14T11:10:56;10.25;;;1.65;;
57573;SDS011;68988;49.000;21.242;2024-02-14T11:13:30;2.33;;;1.40;;
57573;SDS011;68988;49.000;21.242;2024-02-14T11:16:01;4.63;;;1.80;;
57573;SDS011;68988;49.000;21.242;2024-02-14T11:18:27;3.67;;;1.40;;
57573;SDS011;68988;49.000;21.242;2024-02-14T11:20:58;5.55;;;1.27;;
57573;SDS011;68988;49.000;21.242;2024-02-14T11:23:23;2.88;;;1.40;;
57573;SDS011;68988;49.000;21.242;2024-02-14T11:25:49;7.25;;;1.83;;
57573;SDS011;68988;49.000;21.242;2024-02-14T11:28:16;5.55;;;1.50;;
57573;SDS011;68988;49.000;21.242;2024-02-14T11:35:45;3.47;;;1.58;;
57573;SDS011;68988;49.000;21.242;2024-02-14T11:38:12;6.53;;;2.00;;
57573;SDS011;68988;49.000;21.242;2024-02-14T11:40:38;6.80;;;1.73;;
57573;SDS011;68988;49.000;21.242;2024-02-14T11:43:04;17.85;;;2.22;;
57573;SDS011;68988;49.000;21.242;2024-02-14T11:45:30;5.80;;;1.58;;
57573;SDS011;68988;49.000;21.242;2024-02-14T11:47:56;8.02;;;1.83;;
57573;SDS011;68988;49.000;21.242;2024-02-14T11:50:21;6.35;;;2.00;;
57573;SDS011;68988;49.000;21.242;2024-02-14T11:52:47;6.82;;;1.73;;
57573;SDS011;68988;49.000;21.242;2024-02-14T11:55:12;13.13;;;1.80;;
57573;SDS011;68988;49.000;21.242;2024-02-14T11:57:40;4.72;;;2.08;;
57573;SDS011;68988;49.000;21.242;2024-02-14T12:00:07;4.50;;;2.03;;
57573;SDS011;68988;49.000;21.242;2024-02-14T12:02:33;4.28;;;1.83;;
57573;SDS011;68988;49.000;21.242;2024-02-14T12:04:59;3.30;;;2.10;;
57573;SDS011;68988;49.000;21.242;2024-02-14T12:07:25;4.82;;;2.03;;
57573;SDS011;68988;49.000;21.242;2024-02-14T12:09:51;2.75;;;1.70;;
57573;SDS011;68988;49.000;21.242;2024-02-14T12:12:16;7.53;;;1.52;;
57573;SDS011;68988;49.000;21.242;2024-02-14T12:14:45;2.33;;;1.60;;
57573;SDS011;68988;49.000;21.242;2024-02-14T12:17:15;5.95;;;1.52;;
57573;SDS011;68988;49.000;21.242;2024-02-14T12:19:43;3.50;;;1.70;;
57573;SDS011;68988;49.000;21.242;2024-02-14T12:22:09;9.95;;;1.70;;
57573;SDS011;68988;49.000;21.242;2024-02-14T12:24:43;4.13;;;1.67;;
57573;SDS011;68988;49.000;21.242;2024-02-14T12:27:16;6.55;;;1.88;;
57573;SDS011;68988;49.000;21.242;2024-02-14T12:29:45;4.30;;;1.88;;
57573;SDS011;68988;49.000;21.242;2024-02-14T12:32:11;4.47;;;1.70;;
57573;SDS011;68988;49.000;21.242;2024-02-14T12:34:37;10.63;;;1.88;;
57573;SDS011;68988;49.000;21.242;2024-02-14T12:37:02;2.22;;;1.50;;
57573;SDS011;68988;49.000;21.242;2024-02-14T12:39:28;3.05;;;1.38;;
57573;SDS011;68988;49.000;21.242;2024-02-14T12:41:54;5.22;;;1.60;;
57573;SDS011;68988;49.000;21.242;2024-02-14T12:44:20;6.82;;;1.90;;
57573;SDS011;68988;49.000;21.242;2024-02-14T12:46:45;3.83;;;1.83;;
57573;SDS011;68988;49.000;21.242;2024-02-14T12:49:11;3.20;;;1.52;;
57573;SDS011;68988;49.000;21.242;2024-02-14T12:51:36;3.92;;;1.60;;
57573;SDS011;68988;49.000;21.242;2024-02-14T12:54:03;2.13;;;1.60;;
57573;SDS011;68988;49.000;21.242;2024-02-14T12:56:30;7.63;;;1.55;;
57573;SDS011;68988;49.000;21.242;2024-02-14T12:58:56;7.40;;;1.60;;
57573;SDS011;68988;49.000;21.242;2024-02-14T13:01:22;3.67;;;1.50;;
57573;SDS011;68988;49.000;21.242;2024-02-14T13:03:47;4.47;;;1.67;;
57573;SDS011;68988;49.000;21.242;2024-02-14T13:06:13;4.22;;;1.60;;
57573;SDS011;68988;49.000;21.242;2024-02-14T13:08:41;4.53;;;1.48;;
57573;SDS011;68988;49.000;21.242;2024-02-14T13:11:06;4.22;;;1.50;;
57573;SDS011;68988;49.000;21.242;2024-02-14T13:13:33;4.07;;;1.30;;
57573;SDS011;68988;49.000;21.242;2024-02-14T13:15:59;4.20;;;1.67;;
57573;SDS011;68988;49.000;21.242;2024-02-14T13:18:25;2.30;;;1.23;;
57573;SDS011;68988;49.000;21.242;2024-02-14T13:20:50;3.70;;;1.60;;
57573;SDS011;68988;49.000;21.242;2024-02-14T13:23:22;3.63;;;1.45;;
57573;SDS011;68988;49.000;21.242;2024-02-14T13:25:48;3.08;;;1.35;;
57573;SDS011;68988;49.000;21.242;2024-02-14T13:28:14;1.63;;;1.20;;
57573;SDS011;68988;49.000;21.242;2024-02-14T13:30:39;1.88;;;1.48;;
57573;SDS011;68988;49.000;21.242;2024-02-14T13:33:05;3.35;;;1.55;;
57573;SDS011;68988;49.000;21.242;2024-02-14T13:35:30;3.90;;;2.03;;
57573;SDS011;68988;49.000;21.242;2024-02-14T13:37:56;2.83;;;1.40;;
57573;SDS011;68988;49.000;21.242;2024-02-14T13:40:23;2.17;;;1.52;;
57573;SDS011;68988;49.000;21.242;2024-02-14T13:42:48;2.08;;;1.40;;
57573;SDS011;68988;49.000;21.242;2024-02-14T13:45:14;1.88;;;1.40;;
57573;SDS011;68988;49.000;21.242;2024-02-14T13:47:41;5.22;;;1.50;;
57573;SDS011;68988;49.000;21.242;2024-02-14T13:50:09;6.78;;;1.70;;
57573;SDS011;68988;49.000;21.242;2024-02-14T13:52:35;1.52;;;1.33;;
57573;SDS011;68988;49.000;21.242;2024-02-14T13:55:04;2.42;;;1.50;;
57573;SDS011;68988;49.000;21.242;2024-02-14T13:57:30;2.90;;;1.85;;
57573;SDS011;68988;49.000;21.242;2024-02-14T13:59:57;5.72;;;1.70;;
57573;SDS011;68988;49.000;21.242;2024-02-14T14:02:22;2.67;;;1.30;;
57573;SDS011;68988;49.000;21.242;2024-02-14T14:04:48;1.85;;;1.40;;
57573;SDS011;68988;49.000;21.242;2024-02-14T14:07:14;4.53;;;1.83;;
57573;SDS011;68988;49.000;21.242;2024-02-14T14:09:39;11.02;;;1.63;;
57573;SDS011;68988;49.000;21.242;2024-02-14T14:12:05;1.77;;;1.50;;
57573;SDS011;68988;49.000;21.242;2024-02-14T14:14:30;1.77;;;1.63;;
57573;SDS011;68988;49.000;21.242;2024-02-14T14:16:55;3.75;;;1.48;;
57573;SDS011;68988;49.000;21.242;2024-02-14T14:19:22;5.93;;;1.85;;
57573;SDS011;68988;49.000;21.242;2024-02-14T14:21:48;13.30;;;1.85;;
57573;SDS011;68988;49.000;21.242;2024-02-14T14:24:13;7.05;;;1.80;;
57573;SDS011;68988;49.000;21.242;2024-02-14T14:26:40;7.13;;;1.60;;
57573;SDS011;68988;49.000;21.242;2024-02-14T14:29:05;6.45;;;1.48;;
57573;SDS011;68988;49.000;21.242;2024-02-14T14:31:31;4.03;;;1.60;;